Time;durP1;ratioP1;P1;durP2;ratioP2;P2;SDS_P1;SDS_P2;PMS_P1;PMS_P2;Temp;Humidity;BMP_temperature;BMP_pressure;BME280_temperature;BME280_humidity;BME280_pressure;Samples;Min_cycle;Max_cycle;Signal;HPM_P1;HPM_P2
2021/03/29 00:02:06;;;;;;;;;;;7.40;99.90;;;;;;5091521;28;20319;-63
2021/03/29 00:04:32;;;;;;;;;;;7.40;99.90;;;;;;5084617;28;19923;-64
2021/03/29 00:06:59;;;;;;;;;;;7.40;99.90;;;;;;5091894;28;19916;-64
2021/03/29 00:09:25;;;;;;;;;;;7.40;99.90;;;;;;5085409;28;19912;-65
2021/03/29 00:11:54;;;;;;;;;;;7.40;99.90;;;;;;5089649;28;19913;-64
2021/03/29 00:14:20;;;;;;;;;;;7.50;99.90;;;;;;5091632;28;19923;-64
2021/03/29 00:16:46;;;;;;;;;;;7.50;99.90;;;;;;5091171;28;19916;-64
2021/03/29 00:19:12;;;;;;;;;;;7.50;99.90;;;;;;5084585;28;19919;-63
2021/03/29 00:21:38;;;;;;;;;;;7.50;99.90;;;;;;5086945;28;19916;-64
2021/03/29 00:24:05;;;;;;;;;;;7.50;99.90;;;;;;5085507;28;20367;-65
2021/03/29 00:26:31;;;;;;;;;;;7.50;99.90;;;;;;5089288;28;20323;-63
2021/03/29 00:28:57;;;;;;;;;;;7.50;99.90;;;;;;5082570;28;19916;-64
2021/03/29 00:31:23;;;;;;;;;;;7.50;99.90;;;;;;5088199;28;19936;-63
2021/03/29 00:33:49;;;;;;;;;;;7.50;99.90;;;;;;5090770;28;20275;-65
2021/03/29 00:36:15;;;;;;;;;;;7.60;99.90;;;;;;5091334;28;19924;-65
2021/03/29 00:38:41;;;;;;;;;;;7.60;99.90;;;;;;5091085;28;19954;-63
2021/03/29 00:41:10;;;;;;;;;;;7.50;99.90;;;;;;5086589;28;20368;-64
2021/03/29 00:43:37;;;;;;;;;;;7.50;99.90;;;;;;5088309;28;19924;-64
2021/03/29 00:46:03;;;;;;;;;;;7.60;99.90;;;;;;5087126;28;20373;-64
2021/03/29 00:48:30;;;;;;;;;;;7.60;99.90;;;;;;5089238;28;19920;-63
2021/03/29 00:50:55;;;;;;;;;;;7.60;99.90;;;;;;5088398;28;19919;-64
2021/03/29 00:53:22;;;;;;;;;;;7.60;99.90;;;;;;5088810;28;19921;-65
2021/03/29 00:55:48;;;;;;;;;;;7.60;99.90;;;;;;5085694;28;19924;-64
2021/03/29 00:58:14;;;;;;;;;;;7.60;99.90;;;;;;5084796;28;20130;-64
2021/03/29 01:00:45;;;;;;;;;;;7.70;99.90;;;;;;5084829;28;20372;-64
2021/03/29 01:03:25;;;;;;;;;;;7.70;99.90;;;;;;5088631;28;19908;-64
2021/03/29 01:06:17;;;;;;;;;;;7.60;99.90;;;;;;5083583;28;19917;-64
2021/03/29 01:08:44;;;;;;;;;;;7.70;99.90;;;;;;5087679;28;20284;-63
2021/03/29 01:11:11;;;;;;;;;;;7.70;99.90;;;;;;5090395;28;19916;-63
2021/03/29 01:13:57;;;;;;;;;;;7.80;99.90;;;;;;5091694;28;20279;-64
2021/03/29 01:16:23;;;;;;;;;;;7.70;99.90;;;;;;5084085;28;19986;-64
2021/03/29 01:18:51;;;;;;;;;;;7.80;99.90;;;;;;5090336;28;19908;-63
2021/03/29 01:21:32;;;;;;;;;;;7.80;99.90;;;;;;5083362;28;19912;-64
2021/03/29 01:24:01;;;;;;;;;;;7.90;99.90;;;;;;5075492;28;20288;-64
2021/03/29 01:26:27;;;;;;;;;;;7.80;99.90;;;;;;5074241;28;20272;-63
2021/03/29 01:28:53;;;;;;;;;;;7.80;99.90;;;;;;5085936;28;19916;-63
2021/03/29 01:31:19;;;;;;;;;;;7.90;99.90;;;;;;5090577;28;20375;-63
2021/03/29 01:33:45;;;;;;;;;;;7.90;99.90;;;;;;5085960;28;20260;-63
2021/03/29 01:36:11;;;;;;;;;;;7.90;99.90;;;;;;5085293;28;19931;-64
2021/03/29 01:38:37;;;;;;;;;;;7.90;99.90;;;;;;5090511;28;19916;-64
2021/03/29 01:41:02;;;;;;;;;;;7.90;99.90;;;;;;5085328;28;19916;-63
2021/03/29 01:43:28;;;;;;;;;;;7.90;99.90;;;;;;5089614;28;19919;-63
2021/03/29 01:45:55;;;;;;;;;;;7.90;99.90;;;;;;5074203;28;19968;-62
2021/03/29 01:48:21;;;;;;;;;;;7.90;99.90;;;;;;5082853;28;20638;-61
2021/03/29 01:50:47;;;;;;;;;;;7.80;99.90;;;;;;5085565;28;19956;-60
2021/03/29 01:53:13;;;;;;;;;;;7.70;99.90;;;;;;5087386;28;20284;-61
2021/03/29 01:55:39;;;;;;;;;;;7.70;99.90;;;;;;5082647;28;20299;-60
2021/03/29 01:58:05;;;;;;;;;;;7.70;99.90;;;;;;5092430;28;19916;-62
2021/03/29 02:00:33;;;;;;;;;;;7.70;99.90;;;;;;5091063;28;19923;-61
2021/03/29 02:03:08;;;;;;;;;;;7.70;99.90;;;;;;5092867;28;19912;-62
2021/03/29 02:05:34;;;;;;;;;;;7.70;99.90;;;;;;5094492;28;20257;-61
2021/03/29 02:08:00;;;;;;;;;;;7.70;99.90;;;;;;5096334;28;20360;-62
2021/03/29 02:10:27;;;;;;;;;;;7.70;99.90;;;;;;5087717;28;19912;-62
2021/03/29 02:12:53;;;;;;;;;;;7.70;99.90;;;;;;5092368;28;19915;-63
2021/03/29 02:15:25;;;;;;;;;;;7.70;99.90;;;;;;5089320;28;19914;-61
2021/03/29 02:17:55;;;;;;;;;;;7.80;99.90;;;;;;5086506;28;20404;-61
2021/03/29 02:20:21;;;;;;;;;;;7.80;99.90;;;;;;5092051;28;19927;-61
2021/03/29 02:22:50;;;;;;;;;;;7.80;99.90;;;;;;5092971;28;19938;-62
2021/03/29 02:25:17;;;;;;;;;;;7.80;99.90;;;;;;5093123;28;19916;-61
2021/03/29 02:27:47;;;;;;;;;;;7.80;99.90;;;;;;5092582;28;19916;-61
2021/03/29 02:30:14;;;;;;;;;;;7.80;99.90;;;;;;5090809;28;20386;-62
2021/03/29 02:32:43;;;;;;;;;;;7.80;99.90;;;;;;5092630;28;19920;-62
2021/03/29 02:35:09;;;;;;;;;;;7.80;99.90;;;;;;5087193;28;19924;-64
2021/03/29 02:37:36;;;;;;;;;;;7.80;99.90;;;;;;5094548;28;19928;-64
2021/03/29 02:40:03;;;;;;;;;;;7.90;99.90;;;;;;5090705;28;19912;-62
2021/03/29 02:42:29;;;;;;;;;;;7.90;99.90;;;;;;5089306;28;19912;-61
2021/03/29 02:44:55;;;;;;;;;;;7.90;99.90;;;;;;5086615;28;19921;-63
2021/03/29 02:47:21;;;;;;;;;;;7.90;99.90;;;;;;5092349;28;19916;-61
2021/03/29 02:49:47;;;;;;;;;;;7.90;99.90;;;;;;5093072;28;20310;-61
2021/03/29 02:52:13;;;;;;;;;;;7.90;99.90;;;;;;5082107;28;19969;-61
2021/03/29 02:54:39;;;;;;;;;;;7.90;99.90;;;;;;5089538;28;19927;-62
2021/03/29 02:57:05;;;;;;;;;;;7.90;99.90;;;;;;5093101;28;19969;-62
2021/03/29 02:59:31;;;;;;;;;;;7.90;99.90;;;;;;5092316;28;19928;-61
2021/03/29 03:01:57;;;;;;;;;;;7.90;99.90;;;;;;5086502;28;19969;-61
2021/03/29 03:04:23;;;;;;;;;;;7.90;99.90;;;;;;5088956;28;19923;-61
2021/03/29 03:06:49;;;;;;;;;;;7.90;99.90;;;;;;5088978;28;19916;-61
2021/03/29 03:09:15;;;;;;;;;;;8.00;99.90;;;;;;5088060;28;19909;-62
2021/03/29 03:11:44;;;;;;;;;;;7.90;99.90;;;;;;5094188;28;19924;-62
2021/03/29 03:14:10;;;;;;;;;;;8.00;99.90;;;;;;5089970;28;19915;-65
2021/03/29 03:16:36;;;;;;;;;;;8.00;99.90;;;;;;5082713;28;19932;-61
2021/03/29 03:19:03;;;;;;;;;;;8.00;99.90;;;;;;5091332;28;19908;-61
2021/03/29 03:21:29;;;;;;;;;;;8.10;99.90;;;;;;5086547;28;19913;-62
2021/03/29 03:23:56;;;;;;;;;;;8.10;99.90;;;;;;5089449;28;19935;-62
2021/03/29 03:26:22;;;;;;;;;;;8.10;99.90;;;;;;5087007;28;19908;-62
2021/03/29 03:28:48;;;;;;;;;;;8.10;99.90;;;;;;5089744;28;20003;-62
2021/03/29 03:31:14;;;;;;;;;;;8.10;99.90;;;;;;5087885;28;20356;-61
2021/03/29 03:33:40;;;;;;;;;;;8.10;99.90;;;;;;5091229;28;19958;-63
2021/03/29 03:36:06;;;;;;;;;;;8.20;99.90;;;;;;5090285;28;20372;-64
2021/03/29 03:38:34;;;;;;;;;;;8.20;99.90;;;;;;5087042;28;19927;-61
2021/03/29 03:41:00;;;;;;;;;;;8.20;99.90;;;;;;5093140;28;19919;-62
2021/03/29 03:43:30;;;;;;;;;;;8.20;99.90;;;;;;5081782;28;19913;-62
2021/03/29 03:45:59;;;;;;;;;;;8.20;99.90;;;;;;5084677;28;19916;-62
2021/03/29 03:48:25;;;;;;;;;;;8.20;99.90;;;;;;5091363;28;19974;-62
2021/03/29 03:50:51;;;;;;;;;;;8.20;99.90;;;;;;5090100;28;20037;-62
2021/03/29 03:53:19;;;;;;;;;;;8.20;99.90;;;;;;5101979;28;20003;-62
2021/03/29 03:55:45;;;;;;;;;;;8.30;99.90;;;;;;5093256;28;19908;-62
2021/03/29 03:58:11;;;;;;;;;;;8.30;99.90;;;;;;5093451;28;19928;-62
2021/03/29 04:00:37;;;;;;;;;;;8.30;99.90;;;;;;5093936;28;19912;-63
2021/03/29 04:03:03;;;;;;;;;;;8.20;99.90;;;;;;5082147;28;19912;-62
2021/03/29 04:05:30;;;;;;;;;;;8.20;99.90;;;;;;5086909;28;19923;-64
2021/03/29 04:07:58;;;;;;;;;;;8.20;99.90;;;;;;5085522;28;19916;-62
2021/03/29 04:10:36;;;;;;;;;;;8.20;99.90;;;;;;5083401;28;20288;-62
2021/03/29 04:13:03;;;;;;;;;;;8.20;99.90;;;;;;5082078;28;19936;-63
2021/03/29 04:15:29;;;;;;;;;;;8.20;99.90;;;;;;5084730;28;19909;-63
2021/03/29 04:17:55;;;;;;;;;;;8.30;99.90;;;;;;5085636;28;19928;-62
2021/03/29 04:20:21;;;;;;;;;;;8.30;99.90;;;;;;5082135;28;19934;-63
2021/03/29 04:22:47;;;;;;;;;;;8.30;99.90;;;;;;5082408;28;19962;-65
2021/03/29 04:25:14;;;;;;;;;;;8.30;99.90;;;;;;5099637;28;19913;-63
2021/03/29 04:27:40;;;;;;;;;;;8.30;99.90;;;;;;5072713;28;19927;-63
2021/03/29 04:30:10;;;;;;;;;;;8.30;99.90;;;;;;5083402;28;19925;-64
2021/03/29 04:32:35;;;;;;;;;;;8.30;99.90;;;;;;5084360;28;19916;-63
2021/03/29 04:35:02;;;;;;;;;;;8.30;99.90;;;;;;5082123;28;19912;-63
2021/03/29 04:37:28;;;;;;;;;;;8.30;99.90;;;;;;5084066;28;19920;-63
2021/03/29 04:39:53;;;;;;;;;;;8.30;99.90;;;;;;5083360;28;20296;-64
2021/03/29 04:42:19;;;;;;;;;;;8.30;99.90;;;;;;5084795;28;20438;-64
2021/03/29 04:44:46;;;;;;;;;;;8.30;99.90;;;;;;5084010;28;20287;-65
2021/03/29 04:47:12;;;;;;;;;;;8.30;99.90;;;;;;5084982;28;19920;-65
2021/03/29 04:49:39;;;;;;;;;;;8.20;99.90;;;;;;5084861;28;19952;-64
2021/03/29 04:52:06;;;;;;;;;;;8.30;99.90;;;;;;5087257;28;20399;-63
2021/03/29 04:54:31;;;;;;;;;;;8.30;99.90;;;;;;5085428;28;20730;-63
2021/03/29 04:56:57;;;;;;;;;;;8.30;99.90;;;;;;5084100;28;19931;-65
2021/03/29 04:59:24;;;;;;;;;;;8.30;99.90;;;;;;5084640;28;19940;-67
2021/03/29 05:01:59;;;;;;;;;;;8.30;99.90;;;;;;5083108;28;19912;-64
2021/03/29 05:04:25;;;;;;;;;;;8.30;99.90;;;;;;5081817;28;19919;-67
2021/03/29 05:06:51;;;;;;;;;;;8.30;99.90;;;;;;5085127;28;19928;-67
2021/03/29 05:09:17;;;;;;;;;;;8.30;99.90;;;;;;5085252;28;20271;-65
2021/03/29 05:11:53;;;;;;;;;;;8.30;99.90;;;;;;5083498;28;19916;-67
2021/03/29 05:14:20;;;;;;;;;;;8.30;99.90;;;;;;5082721;28;20641;-66
2021/03/29 05:16:46;;;;;;;;;;;8.20;99.90;;;;;;5079669;28;20288;-65
2021/03/29 05:19:12;;;;;;;;;;;8.20;99.90;;;;;;5082494;28;20296;-66
2021/03/29 05:21:38;;;;;;;;;;;8.20;99.90;;;;;;5083008;28;19921;-66
2021/03/29 05:24:05;;;;;;;;;;;8.20;99.90;;;;;;5084035;28;19915;-66
2021/03/29 05:26:31;;;;;;;;;;;8.20;99.90;;;;;;5084426;28;19912;-67
2021/03/29 05:28:57;;;;;;;;;;;8.20;99.90;;;;;;5082088;28;20449;-68
2021/03/29 05:31:23;;;;;;;;;;;8.20;99.90;;;;;;5083568;28;19920;-64
2021/03/29 05:33:48;;;;;;;;;;;8.30;99.90;;;;;;5082811;28;19912;-65
2021/03/29 05:36:15;;;;;;;;;;;8.30;99.90;;;;;;5082850;28;20012;-66
2021/03/29 05:38:42;;;;;;;;;;;8.30;99.90;;;;;;5078964;28;19920;-65
2021/03/29 05:41:11;;;;;;;;;;;8.30;99.90;;;;;;5083750;28;19912;-66
2021/03/29 05:43:40;;;;;;;;;;;8.20;99.90;;;;;;5078935;28;19923;-65
2021/03/29 05:46:06;;;;;;;;;;;8.30;99.90;;;;;;5077018;28;19920;-65
2021/03/29 05:48:32;;;;;;;;;;;8.30;99.90;;;;;;5076094;28;20426;-64
2021/03/29 05:51:01;;;;;;;;;;;8.20;99.90;;;;;;5077421;28;19913;-66
2021/03/29 05:53:27;;;;;;;;;;;8.20;99.90;;;;;;5077317;28;19938;-65
2021/03/29 05:55:54;;;;;;;;;;;8.20;99.90;;;;;;5090832;28;20388;-68
2021/03/29 06:00:49;;;;;;;;;;;8.20;99.90;;;;;;5084404;28;20383;-65
2021/03/29 06:03:36;;;;;;;;;;;8.20;99.90;;;;;;5085017;28;19909;-64
2021/03/29 06:06:04;;;;;;;;;;;8.20;99.90;;;;;;5075216;28;19908;-65
2021/03/29 06:08:31;;;;;;;;;;;8.20;99.90;;;;;;5094994;28;19909;-64
2021/03/29 06:10:58;;;;;;;;;;;8.10;99.90;;;;;;5088600;28;19912;-65
2021/03/29 06:13:24;;;;;;;;;;;8.10;99.90;;;;;;5101868;28;19909;-63
2021/03/29 06:16:06;;;;;;;;;;;8.20;99.90;;;;;;5081874;28;20268;-63
2021/03/29 06:18:32;;;;;;;;;;;8.10;99.90;;;;;;5080600;28;20384;-62
2021/03/29 06:20:58;;;;;;;;;;;8.10;99.90;;;;;;5081651;28;19912;-61
2021/03/29 06:23:25;;;;;;;;;;;8.10;99.90;;;;;;5078969;28;19962;-62
2021/03/29 06:25:51;;;;;;;;;;;8.10;99.90;;;;;;5076632;28;19909;-63
2021/03/29 06:28:24;;;;;;;;;;;8.10;99.90;;;;;;5083077;28;19924;-63
2021/03/29 06:30:50;;;;;;;;;;;8.10;99.90;;;;;;5075653;28;19924;-62
2021/03/29 06:33:16;;;;;;;;;;;8.10;99.90;;;;;;5080101;28;21208;-62
2021/03/29 06:35:52;;;;;;;;;;;8.10;99.90;;;;;;5076654;28;19927;-63
2021/03/29 06:38:33;;;;;;;;;;;8.10;99.90;;;;;;5078065;28;19927;-63
2021/03/29 06:41:00;;;;;;;;;;;8.10;99.90;;;;;;5078875;28;20363;-62
2021/03/29 06:43:26;;;;;;;;;;;8.10;99.90;;;;;;5078402;28;19913;-62
2021/03/29 06:45:53;;;;;;;;;;;8.10;99.90;;;;;;5083123;28;19921;-65
2021/03/29 06:48:28;;;;;;;;;;;8.10;99.90;;;;;;5080691;28;19913;-62
2021/03/29 06:51:06;;;;;;;;;;;8.20;99.90;;;;;;5079036;28;19923;-63
2021/03/29 06:53:33;;;;;;;;;;;8.10;99.90;;;;;;5080761;28;19915;-63
2021/03/29 06:56:17;;;;;;;;;;;8.20;99.90;;;;;;5083197;28;19917;-63
2021/03/29 06:58:43;;;;;;;;;;;8.20;99.90;;;;;;5094632;28;19932;-62
2021/03/29 07:01:14;;;;;;;;;;;8.20;99.90;;;;;;5092998;28;19920;-62
2021/03/29 07:03:40;;;;;;;;;;;8.20;99.90;;;;;;5079360;28;19931;-63
2021/03/29 07:06:06;;;;;;;;;;;8.30;99.90;;;;;;5079893;28;20368;-64
2021/03/29 07:08:32;;;;;;;;;;;8.30;99.90;;;;;;5085633;28;20291;-63
2021/03/29 07:10:58;;;;;;;;;;;8.30;99.90;;;;;;5084067;28;19916;-64
2021/03/29 07:13:24;;;;;;;;;;;8.20;99.90;;;;;;5086383;28;19908;-63
2021/03/29 07:15:50;;;;;;;;;;;8.20;99.90;;;;;;5085069;28;19916;-65
2021/03/29 07:18:16;;;;;;;;;;;8.20;99.90;;;;;;5083786;28;19924;-64
2021/03/29 07:20:42;;;;;;;;;;;8.20;99.90;;;;;;5082619;28;19915;-63
2021/03/29 07:23:08;;;;;;;;;;;8.30;99.90;;;;;;5083169;28;19955;-66
2021/03/29 07:25:35;;;;;;;;;;;8.20;99.90;;;;;;5083421;28;19966;-66
2021/03/29 07:28:01;;;;;;;;;;;8.20;99.90;;;;;;5072181;28;19921;-65
2021/03/29 07:30:50;;;;;;;;;;;8.30;99.90;;;;;;5080936;28;19932;-64
2021/03/29 07:33:17;;;;;;;;;;;8.30;99.90;;;;;;5082037;28;19912;-65
2021/03/29 07:35:44;;;;;;;;;;;8.30;99.90;;;;;;5081399;28;19913;-65
2021/03/29 07:38:10;;;;;;;;;;;8.30;99.90;;;;;;5081339;28;19948;-66
2021/03/29 07:40:37;;;;;;;;;;;8.20;99.90;;;;;;5083993;28;20399;-64
2021/03/29 07:43:06;;;;;;;;;;;8.30;99.90;;;;;;5080564;28;19912;-63
2021/03/29 07:45:35;;;;;;;;;;;8.30;99.90;;;;;;5081596;28;19923;-64
2021/03/29 07:48:01;;;;;;;;;;;8.30;99.90;;;;;;5088475;28;19919;-65
2021/03/29 07:50:27;;;;;;;;;;;8.30;99.90;;;;;;5085150;28;19916;-66
2021/03/29 07:52:54;;;;;;;;;;;8.20;99.90;;;;;;5089473;28;20403;-67
2021/03/29 07:55:25;;;;;;;;;;;8.30;99.90;;;;;;5090390;28;19912;-68
2021/03/29 07:57:51;;;;;;;;;;;8.30;99.90;;;;;;5084512;28;19925;-66
2021/03/29 08:00:23;;;;;;;;;;;8.30;99.90;;;;;;5089786;28;19912;-65
2021/03/29 08:02:49;;;;;;;;;;;8.30;99.90;;;;;;5083618;28;20021;-67
2021/03/29 08:05:16;;;;;;;;;;;8.40;99.90;;;;;;5084309;28;20312;-67
2021/03/29 08:07:42;;;;;;;;;;;8.40;99.90;;;;;;5088530;28;20359;-65
2021/03/29 08:10:09;;;;;;;;;;;8.30;99.90;;;;;;5086839;28;20265;-67
2021/03/29 08:12:36;;;;;;;;;;;8.40;99.90;;;;;;5090394;28;19924;-69
2021/03/29 08:15:02;;;;;;;;;;;8.40;99.90;;;;;;5089872;28;19924;-67
2021/03/29 08:17:38;;;;;;;;;;;8.40;99.90;;;;;;5088114;28;19928;-67
2021/03/29 08:20:07;;;;;;;;;;;8.40;99.90;;;;;;5088850;28;19916;-68
2021/03/29 08:22:33;;;;;;;;;;;8.40;99.90;;;;;;5085223;28;19920;-66
2021/03/29 08:24:59;;;;;;;;;;;8.40;99.90;;;;;;5079968;28;19958;-66
2021/03/29 08:27:28;;;;;;;;;;;8.40;99.90;;;;;;5083257;28;19916;-65
2021/03/29 08:29:56;;;;;;;;;;;8.40;99.90;;;;;;5098906;28;19924;-67
2021/03/29 08:32:32;;;;;;;;;;;8.40;99.90;;;;;;5089281;28;19920;-67
2021/03/29 08:34:59;;;;;;;;;;;8.40;99.90;;;;;;5087484;28;19912;-67
2021/03/29 08:37:34;;;;;;;;;;;8.30;99.90;;;;;;5092645;28;20002;-69
2021/03/29 08:40:01;;;;;;;;;;;8.30;99.90;;;;;;5071183;28;19913;-69
2021/03/29 08:42:29;;;;;;;;;;;8.30;99.90;;;;;;5087575;28;20384;-66
2021/03/29 08:44:55;;;;;;;;;;;8.30;99.90;;;;;;5095431;28;19911;-67
2021/03/29 08:47:22;;;;;;;;;;;8.30;99.90;;;;;;5075965;28;19913;-67
2021/03/29 08:49:50;;;;;;;;;;;8.30;99.90;;;;;;5067817;28;19936;-65
2021/03/29 08:52:16;;;;;;;;;;;8.40;99.90;;;;;;5092023;28;19935;-65
2021/03/29 08:54:46;;;;;;;;;;;8.40;99.90;;;;;;5089975;28;20264;-67
2021/03/29 08:57:12;;;;;;;;;;;8.40;99.90;;;;;;5090059;28;19932;-67
2021/03/29 08:59:38;;;;;;;;;;;8.40;99.90;;;;;;5087322;28;20261;-67
2021/03/29 09:02:12;;;;;;;;;;;8.40;99.90;;;;;;5088842;28;20280;-65
2021/03/29 09:04:50;;;;;;;;;;;8.40;99.90;;;;;;5084027;28;20271;-67
2021/03/29 09:07:16;;;;;;;;;;;8.50;99.90;;;;;;5080718;28;19920;-66
2021/03/29 09:09:42;;;;;;;;;;;8.50;99.90;;;;;;5083815;28;19924;-67
2021/03/29 09:12:08;;;;;;;;;;;8.60;99.90;;;;;;5086540;28;19912;-67
2021/03/29 09:14:34;;;;;;;;;;;8.60;99.90;;;;;;5082250;28;19919;-67
2021/03/29 09:17:01;;;;;;;;;;;8.60;99.90;;;;;;5081028;28;19913;-67
2021/03/29 09:19:27;;;;;;;;;;;8.80;99.90;;;;;;5084452;28;19916;-68
2021/03/29 09:21:53;;;;;;;;;;;8.80;99.90;;;;;;5081938;28;19961;-65
2021/03/29 09:24:20;;;;;;;;;;;8.90;99.90;;;;;;5082940;28;19919;-67
2021/03/29 09:26:56;;;;;;;;;;;8.90;99.90;;;;;;5084993;28;19912;-67
2021/03/29 09:29:22;;;;;;;;;;;8.90;99.90;;;;;;5083091;28;19924;-68
2021/03/29 09:31:48;;;;;;;;;;;8.90;99.90;;;;;;5086432;28;19920;-68
2021/03/29 09:34:14;;;;;;;;;;;9.00;99.90;;;;;;5079423;28;19974;-66
2021/03/29 09:36:40;;;;;;;;;;;8.90;99.90;;;;;;5097926;28;19919;-67
2021/03/29 09:39:12;;;;;;;;;;;8.90;99.90;;;;;;5098119;28;19974;-66
2021/03/29 09:41:47;;;;;;;;;;;8.80;99.90;;;;;;5084144;28;19920;-65
2021/03/29 09:44:13;;;;;;;;;;;8.90;99.90;;;;;;5081056;28;19939;-67
2021/03/29 09:46:39;;;;;;;;;;;9.00;99.90;;;;;;5083741;28;19912;-65
2021/03/29 09:49:05;;;;;;;;;;;9.00;99.90;;;;;;5087010;28;20331;-67
2021/03/29 09:51:31;;;;;;;;;;;8.90;99.90;;;;;;5098511;28;19909;-65
2021/03/29 09:53:57;;;;;;;;;;;8.90;99.90;;;;;;5083529;28;19981;-67
2021/03/29 09:56:29;;;;;;;;;;;8.90;99.90;;;;;;5082023;28;19916;-67
2021/03/29 09:58:55;;;;;;;;;;;8.80;99.90;;;;;;5104314;28;19924;-66
2021/03/29 10:01:22;;;;;;;;;;;8.60;99.90;;;;;;5092067;28;21639;-67
2021/03/29 10:03:55;;;;;;;;;;;8.70;99.90;;;;;;5089997;28;19919;-72
2021/03/29 10:06:24;;;;;;;;;;;8.80;99.90;;;;;;5092026;28;19916;-65
2021/03/29 10:08:57;;;;;;;;;;;8.70;99.90;;;;;;5081086;28;19916;-63
2021/03/29 10:11:23;;;;;;;;;;;8.70;99.90;;;;;;5082733;28;19923;-63
2021/03/29 10:13:49;;;;;;;;;;;8.60;99.90;;;;;;5085850;28;19916;-65
2021/03/29 10:16:25;;;;;;;;;;;8.60;99.90;;;;;;5087255;28;20308;-64
2021/03/29 10:19:01;;;;;;;;;;;8.70;99.90;;;;;;5087554;28;19920;-64
2021/03/29 10:21:27;;;;;;;;;;;8.50;99.90;;;;;;5087507;28;19923;-63
2021/03/29 10:24:09;;;;;;;;;;;8.70;99.90;;;;;;5088832;28;19912;-64
2021/03/29 10:26:37;;;;;;;;;;;8.70;99.90;;;;;;5088321;28;19908;-65
2021/03/29 10:29:03;;;;;;;;;;;8.60;99.90;;;;;;5094402;28;19932;-65
2021/03/29 10:31:30;;;;;;;;;;;8.70;99.90;;;;;;5085333;28;19923;-66
2021/03/29 10:33:56;;;;;;;;;;;8.50;99.90;;;;;;5090622;28;19920;-66
2021/03/29 10:36:23;;;;;;;;;;;8.60;99.90;;;;;;5093395;28;20376;-66
2021/03/29 10:38:49;;;;;;;;;;;8.60;99.90;;;;;;5095006;28;20451;-68
2021/03/29 10:41:15;;;;;;;;;;;8.60;99.90;;;;;;5086922;28;19999;-67
2021/03/29 10:43:41;;;;;;;;;;;8.50;99.90;;;;;;5068881;28;19919;-66
2021/03/29 10:46:07;;;;;;;;;;;8.50;99.90;;;;;;5090414;28;19927;-66
2021/03/29 10:48:33;;;;;;;;;;;8.60;99.90;;;;;;5087527;28;19912;-66
2021/03/29 10:51:00;;;;;;;;;;;8.50;99.90;;;;;;5083602;28;19921;-67
2021/03/29 10:53:26;;;;;;;;;;;8.40;99.90;;;;;;5076705;28;19908;-64
2021/03/29 10:55:52;;;;;;;;;;;8.50;99.90;;;;;;5086652;28;19912;-63
2021/03/29 10:58:17;;;;;;;;;;;8.60;99.90;;;;;;5088399;28;19977;-65
2021/03/29 11:00:43;;;;;;;;;;;8.70;99.90;;;;;;5077614;28;19924;-66
2021/03/29 11:03:09;;;;;;;;;;;8.70;99.90;;;;;;5082392;28;20660;-67
2021/03/29 11:05:35;;;;;;;;;;;8.60;99.90;;;;;;5084609;28;19945;-64
2021/03/29 11:08:01;;;;;;;;;;;8.60;99.90;;;;;;5085918;28;19920;-62
2021/03/29 11:10:27;;;;;;;;;;;8.70;99.90;;;;;;5083384;28;19966;-64
2021/03/29 11:12:53;;;;;;;;;;;8.70;99.90;;;;;;5078106;28;20373;-65
2021/03/29 11:15:19;;;;;;;;;;;8.70;99.90;;;;;;5080069;28;19924;-65
2021/03/29 11:17:45;;;;;;;;;;;8.80;99.90;;;;;;5083604;28;19928;-64
2021/03/29 11:20:11;;;;;;;;;;;8.70;99.90;;;;;;5081326;28;19928;-66
2021/03/29 11:22:37;;;;;;;;;;;8.80;99.90;;;;;;5082071;28;19912;-65
2021/03/29 11:25:06;;;;;;;;;;;8.80;99.90;;;;;;5075682;28;19923;-66
2021/03/29 11:27:32;;;;;;;;;;;8.70;99.90;;;;;;5071099;28;20281;-64
2021/03/29 11:29:58;;;;;;;;;;;8.80;99.90;;;;;;5077814;28;19926;-65
2021/03/29 11:32:25;;;;;;;;;;;8.70;99.90;;;;;;5086160;28;19919;-64
2021/03/29 11:34:51;;;;;;;;;;;8.70;99.90;;;;;;5091949;27;19916;-64
2021/03/29 11:37:17;;;;;;;;;;;8.70;99.90;;;;;;5084528;28;20006;-65
2021/03/29 11:39:43;;;;;;;;;;;8.60;99.90;;;;;;5087974;28;19920;-64
2021/03/29 11:42:09;;;;;;;;;;;8.70;99.90;;;;;;5089723;28;19973;-65
2021/03/29 11:44:35;;;;;;;;;;;8.60;99.90;;;;;;5090884;28;19912;-64
2021/03/29 11:47:01;;;;;;;;;;;8.60;99.90;;;;;;5092212;28;19923;-63
2021/03/29 11:49:27;;;;;;;;;;;8.60;99.90;;;;;;5094204;28;19918;-63
2021/03/29 11:51:53;;;;;;;;;;;8.70;99.90;;;;;;5093333;28;20334;-65
2021/03/29 11:54:19;;;;;;;;;;;8.60;99.90;;;;;;5093695;28;20272;-65
2021/03/29 11:56:45;;;;;;;;;;;8.60;99.90;;;;;;5094121;28;19912;-66
2021/03/29 11:59:11;;;;;;;;;;;8.80;99.90;;;;;;5094335;28;19954;-65
2021/03/29 12:04:18;;;;;;;;;;;8.90;99.90;;;;;;5090531;28;19934;-65
2021/03/29 12:09:36;;;;;;;;;;;8.90;99.90;;;;;;5097746;28;19915;-66
2021/03/29 12:12:06;;;;;;;;;;;8.90;99.90;;;;;;5090308;28;20269;-65
2021/03/29 12:14:34;;;;;;;2.63;0.63;;;9.00;99.90;;;;;;5091572;28;19931;-67
2021/03/29 12:17:01;;;;;;;3.57;0.33;;;9.00;99.90;;;;;;5091050;28;20383;-65
2021/03/29 12:19:28;;;;;;;0.10;0.10;;;9.00;99.90;;;;;;5093185;28;20404;-66
2021/03/29 12:21:58;;;;;;;0.40;0.20;;;9.00;99.90;;;;;;5091496;28;20376;-66
2021/03/29 12:24:27;;;;;;;3.20;0.70;;;9.10;99.90;;;;;;5076794;28;20382;-66
2021/03/29 12:26:53;;;;;;;13.23;0.30;;;9.20;99.90;;;;;;5081715;28;20776;-66
2021/03/29 12:29:36;;;;;;;2.50;1.10;;;9.30;99.90;;;;;;5057605;28;20404;-66
2021/03/29 12:32:20;;;;;;;0.20;0.20;;;9.30;99.90;;;;;;5092765;28;20389;-66
2021/03/29 12:34:50;;;;;;;0.10;0.10;;;9.20;99.90;;;;;;5092253;28;20446;-66
2021/03/29 12:37:18;;;;;;;0.10;0.10;;;9.30;99.90;;;;;;5092444;28;20376;-65
2021/03/29 12:39:53;;;;;;;0.20;0.20;;;9.40;99.90;;;;;;5090396;28;20421;-66
2021/03/29 12:42:27;;;;;;;1.58;0.52;;;9.50;99.90;;;;;;5090672;28;20368;-65
2021/03/29 12:44:56;;;;;;;1.33;0.67;;;9.50;99.90;;;;;;5090934;28;20373;-66
2021/03/29 12:47:27;;;;;;;0.90;0.60;;;9.30;99.90;;;;;;5091263;28;20371;-65
2021/03/29 12:49:53;;;;;;;0.15;0.15;;;9.40;99.90;;;;;;5092116;28;20391;-67
2021/03/29 12:52:20;;;;;;;0.27;0.27;;;9.40;99.90;;;;;;5092274;28;20395;-67
2021/03/29 12:54:46;;;;;;;9.50;0.40;;;9.30;99.90;;;;;;5091691;28;20387;-67
2021/03/29 12:57:12;;;;;;;0.35;0.35;;;9.40;99.90;;;;;;5091914;28;20385;-66
2021/03/29 12:59:39;;;;;;;0.15;0.15;;;9.30;99.90;;;;;;5091682;28;20903;-67
2021/03/29 13:02:05;;;;;;;0.10;0.10;;;9.20;99.90;;;;;;5090959;28;20403;-67
2021/03/29 13:07:06;;;;;;;1.40;0.68;;;9.30;99.90;;;;;;5091853;28;20365;-67
2021/03/29 13:12:04;;;;;;;0.40;0.40;;;9.30;99.90;;;;;;5097615;28;20352;-64
2021/03/29 13:14:57;;;;;;;1.40;0.52;;;9.30;99.90;;;;;;5091933;28;20404;-67
2021/03/29 13:17:24;;;;;;;0.30;0.30;;;9.40;99.90;;;;;;5089290;28;20376;-66
2021/03/29 13:19:51;;;;;;;0.30;0.30;;;9.30;99.90;;;;;;5090274;28;20769;-67
2021/03/29 13:22:17;;;;;;;0.98;0.57;;;9.30;99.90;;;;;;5092048;28;20437;-66
2021/03/29 13:24:44;;;;;;;0.35;0.35;;;9.40;99.90;;;;;;5074446;28;20389;-66
2021/03/29 13:27:10;;;;;;;5.15;0.85;;;9.40;99.90;;;;;;5071380;28;20385;-66
2021/03/29 13:29:36;;;;;;;0.90;0.70;;;9.40;99.90;;;;;;5071794;28;20406;-65
2021/03/29 13:32:05;;;;;;;4.57;0.75;;;9.50;99.90;;;;;;5071467;28;20374;-66
2021/03/29 13:34:31;;;;;;;1.75;0.52;;;9.50;99.90;;;;;;5071172;28;20370;-64
2021/03/29 13:36:57;;;;;;;0.32;0.32;;;9.60;99.90;;;;;;5071067;28;20379;-66
2021/03/29 13:39:23;;;;;;;0.25;0.25;;;9.50;99.90;;;;;;5070087;28;20433;-65
2021/03/29 13:41:50;;;;;;;3.20;1.10;;;9.50;99.90;;;;;;5071167;28;20397;-67
2021/03/29 13:44:16;;;;;;;0.10;0.10;;;9.50;99.90;;;;;;5070046;28;20375;-66
2021/03/29 13:46:44;;;;;;;9.70;0.70;;;9.40;99.90;;;;;;5071180;28;20381;-66
2021/03/29 13:49:10;;;;;;;0.75;0.60;;;9.50;99.90;;;;;;5070019;28;20393;-66
2021/03/29 13:51:36;;;;;;;1.98;1.00;;;9.50;99.90;;;;;;5070070;28;20386;-66
2021/03/29 13:54:07;;;;;;;1.43;0.80;;;9.50;99.90;;;;;;5084894;28;20389;-66
2021/03/29 13:56:35;;;;;;;0.70;0.70;;;9.60;99.90;;;;;;5095467;28;20371;-65
2021/03/29 13:59:01;;;;;;;1.30;0.73;;;9.50;99.90;;;;;;5095005;28;20460;-66
2021/03/29 14:01:31;;;;;;;0.80;0.50;;;9.60;99.90;;;;;;5094131;28;20368;-66
2021/03/29 14:03:57;;;;;;;0.50;0.50;;;9.70;99.90;;;;;;5076980;28;20376;-66
2021/03/29 14:06:23;;;;;;;3.70;0.95;;;9.80;99.90;;;;;;5095568;28;20874;-65
2021/03/29 14:08:49;;;;;;;5.80;1.50;;;9.70;99.90;;;;;;5095205;28;20377;-65
2021/03/29 14:11:15;;;;;;;1.92;0.95;;;9.70;99.90;;;;;;5095446;28;20377;-64
2021/03/29 14:13:42;;;;;;;1.20;0.85;;;9.70;99.90;;;;;;5095135;28;20373;-64
2021/03/29 14:16:08;;;;;;;3.40;1.60;;;9.60;99.90;;;;;;5095382;28;20384;-66
2021/03/29 14:18:34;;;;;;;1.40;0.70;;;9.70;99.90;;;;;;5095342;28;20409;-64
2021/03/29 14:21:11;;;;;;;1.27;0.98;;;9.80;99.90;;;;;;5093717;28;20427;-65
2021/03/29 14:23:38;;;;;;;1.20;0.60;;;9.70;99.90;;;;;;5087255;28;20382;-64
2021/03/29 14:26:04;;;;;;;0.57;0.40;;;9.80;99.90;;;;;;5074513;28;20378;-63
2021/03/29 14:28:30;;;;;;;3.40;1.00;;;9.80;99.90;;;;;;5074661;28;20417;-63
2021/03/29 14:30:56;;;;;;;1.73;1.00;;;9.90;99.90;;;;;;5073219;28;20733;-65